createdAt,value
2023-05-01T00:00:03.471Z,1019.09
2023-05-01T00:00:16.210Z,1019.09
2023-05-01T00:00:44.210Z,1019.08
2023-05-01T00:00:58.192Z,1019.08
2023-05-01T00:01:12.210Z,1019.08
2023-05-01T00:01:26.213Z,1019.08
2023-05-01T00:01:54.189Z,1019.07
2023-05-01T00:02:08.179Z,1019.06
2023-05-01T00:02:22.333Z,1019.06
2023-05-01T00:02:36.540Z,1019.06
2023-05-01T00:03:04.740Z,1019.06
2023-05-01T00:03:18.917Z,1019.07
2023-05-01T00:03:33.133Z,1019.06
2023-05-01T00:03:47.455Z,1019.06
2023-05-01T00:04:15.801Z,1019.05
2023-05-01T00:04:29.908Z,1019.05
2023-05-01T00:04:44.016Z,1019.04
2023-05-01T00:04:58.109Z,1019.04
2023-05-01T00:05:26.134Z,1019.03
2023-05-01T00:05:40.146Z,1019.03
2023-05-01T00:05:54.186Z,1019.03
2023-05-01T00:06:08.307Z,1019.03
2023-05-01T00:06:36.346Z,1019.02
2023-05-01T00:06:50.448Z,1019.02
2023-05-01T00:07:04.597Z,1019.02
2023-05-01T00:07:18.605Z,1019.02
2023-05-01T00:07:46.598Z,1019.02
2023-05-01T00:08:00.615Z,1019.02
2023-05-01T00:08:14.606Z,1019.02
2023-05-01T00:08:28.597Z,1019.01
2023-05-01T00:08:56.580Z,1019.01
2023-05-01T00:09:10.577Z,1019.01
2023-05-01T00:09:24.584Z,1019.01
2023-05-01T00:09:38.569Z,1019.01
2023-05-01T00:10:06.528Z,1019.00
2023-05-01T00:10:20.525Z,1018.99
2023-05-01T00:10:34.519Z,1019.00
2023-05-01T00:10:48.502Z,1018.99
2023-05-01T00:11:16.471Z,1018.99
2023-05-01T00:11:30.455Z,1018.99
2023-05-01T00:11:44.457Z,1018.99
2023-05-01T00:11:58.451Z,1018.99
2023-05-01T00:12:26.422Z,1018.99
2023-05-01T00:12:40.426Z,1018.99
2023-05-01T00:12:54.406Z,1018.99
2023-05-01T00:13:08.417Z,1018.99
2023-05-01T00:13:22.437Z,1018.99
2023-05-01T00:13:36.443Z,1018.99
2023-05-01T00:13:50.435Z,1018.98
2023-05-01T00:14:04.434Z,1018.98
2023-05-01T00:14:18.440Z,1018.98
2023-05-01T00:14:46.379Z,1018.98
2023-05-01T00:15:00.384Z,1018.98
2023-05-01T00:15:14.370Z,1018.98
2023-05-01T00:15:28.362Z,1018.98
2023-05-01T00:15:56.421Z,1018.98
2023-05-01T00:16:10.617Z,1018.98
2023-05-01T00:16:24.737Z,1018.97
2023-05-01T00:16:38.811Z,1018.97
2023-05-01T00:17:06.767Z,1018.97
2023-05-01T00:17:20.755Z,1018.97
2023-05-01T00:17:34.781Z,1018.97
2023-05-01T00:17:48.799Z,1018.97
2023-05-01T00:18:16.890Z,1018.96
2023-05-01T00:18:30.967Z,1018.96
2023-05-01T00:18:44.995Z,1018.96
2023-05-01T00:18:59.026Z,1018.96
2023-05-01T00:19:27.026Z,1018.96
2023-05-01T00:19:41.013Z,1018.96
2023-05-01T00:19:55.308Z,1018.96
2023-05-01T00:20:09.475Z,1018.95
2023-05-01T00:20:37.466Z,1018.95
2023-05-01T00:20:51.455Z,1018.94
2023-05-01T00:21:05.466Z,1018.94
2023-05-01T00:21:19.494Z,1018.94
2023-05-01T00:21:47.450Z,1018.93
2023-05-01T00:22:01.456Z,1018.93
2023-05-01T00:22:15.445Z,1018.93
2023-05-01T00:22:29.434Z,1018.92
2023-05-01T00:22:57.405Z,1018.92
2023-05-01T00:23:11.399Z,1018.92
2023-05-01T00:23:25.395Z,1018.91
2023-05-01T00:23:39.376Z,1018.91
2023-05-01T00:24:07.345Z,1018.90
2023-05-01T00:24:21.335Z,1018.89
2023-05-01T00:24:35.318Z,1018.89
2023-05-01T00:24:49.307Z,1018.89
2023-05-01T00:25:17.241Z,1018.88
2023-05-01T00:25:31.228Z,1018.88
2023-05-01T00:25:45.214Z,1018.88
2023-05-01T00:25:59.206Z,1018.87
2023-05-01T00:26:13.215Z,1018.87
2023-05-01T00:26:27.198Z,1018.87
2023-05-01T00:26:41.198Z,1018.87
2023-05-01T00:26:55.208Z,1018.86
2023-05-01T00:27:09.203Z,1018.86
2023-05-01T00:27:37.187Z,1018.86
2023-05-01T00:27:51.202Z,1018.86
2023-05-01T00:28:05.195Z,1018.86
2023-05-01T00:28:19.200Z,1018.85
2023-05-01T00:28:47.187Z,1018.85
2023-05-01T00:29:01.196Z,1018.85
2023-05-01T00:29:15.206Z,1018.84
2023-05-01T00:29:29.188Z,1018.84
2023-05-01T00:29:57.366Z,1018.84
2023-05-01T00:30:11.667Z,1018.83
2023-05-01T00:30:25.680Z,1018.83
2023-05-01T00:30:39.666Z,1018.83
2023-05-01T00:31:07.628Z,1018.83
2023-05-01T00:31:21.677Z,1018.83
2023-05-01T00:31:35.695Z,1018.83
2023-05-01T00:31:49.747Z,1018.83
2023-05-01T00:32:17.806Z,1018.82
2023-05-01T00:32:31.886Z,1018.82
2023-05-01T00:32:45.957Z,1018.82
2023-05-01T00:32:59.991Z,1018.82
2023-05-01T00:33:27.984Z,1018.81
2023-05-01T00:33:41.990Z,1018.81
2023-05-01T00:33:55.997Z,1018.80
2023-05-01T00:34:09.991Z,1018.80
2023-05-01T00:34:37.940Z,1018.79
2023-05-01T00:34:51.928Z,1018.79
2023-05-01T00:35:05.917Z,1018.78
2023-05-01T00:35:19.900Z,1018.78
2023-05-01T00:35:47.895Z,1018.78
2023-05-01T00:36:01.891Z,1018.77
2023-05-01T00:36:15.881Z,1018.77
2023-05-01T00:36:29.874Z,1018.76
2023-05-01T00:36:57.824Z,1018.76
2023-05-01T00:37:11.836Z,1018.76
2023-05-01T00:37:25.828Z,1018.75
2023-05-01T00:37:39.816Z,1018.74
2023-05-01T00:38:07.795Z,1018.73
2023-05-01T00:38:21.796Z,1018.73
2023-05-01T00:38:35.799Z,1018.73
2023-05-01T00:38:49.807Z,1018.72
2023-05-01T00:39:17.763Z,1018.72
2023-05-01T00:39:31.740Z,1018.71
2023-05-01T00:39:45.736Z,1018.71
2023-05-01T00:39:59.921Z,1018.70
2023-05-01T00:40:27.978Z,1018.70
2023-05-01T00:40:41.975Z,1018.69
2023-05-01T00:40:55.972Z,1018.69
2023-05-01T00:41:09.969Z,1018.69
2023-05-01T00:41:37.919Z,1018.69
2023-05-01T00:41:51.924Z,1018.69
2023-05-01T00:42:05.907Z,1018.69
2023-05-01T00:42:19.921Z,1018.69
2023-05-01T00:42:47.881Z,1018.69
2023-05-01T00:43:01.860Z,1018.70
2023-05-01T00:43:15.848Z,1018.69
2023-05-01T00:43:29.832Z,1018.69
2023-05-01T00:43:57.797Z,1018.69
2023-05-01T00:44:11.820Z,1018.69
2023-05-01T00:44:26.694Z,1018.69
2023-05-01T00:44:40.690Z,1018.69
2023-05-01T00:45:08.652Z,1018.69
2023-05-01T00:45:22.694Z,1018.69
2023-05-01T00:45:36.735Z,1018.69
2023-05-01T00:45:50.930Z,1018.69
2023-05-01T00:46:18.973Z,1018.70
2023-05-01T00:46:45.816Z,1018.69
2023-05-01T00:46:59.801Z,1018.69
2023-05-01T00:47:13.786Z,1018.69
2023-05-01T00:47:27.864Z,1018.69
2023-05-01T00:47:55.917Z,1018.69
2023-05-01T00:48:10.172Z,1018.69
2023-05-01T00:48:24.239Z,1018.69
2023-05-01T00:48:38.258Z,1018.69
2023-05-01T00:49:06.203Z,1018.68
2023-05-01T00:49:20.188Z,1018.68
2023-05-01T00:49:34.184Z,1018.68
2023-05-01T00:49:48.166Z,1018.68
2023-05-01T00:50:16.108Z,1018.68
2023-05-01T00:50:30.100Z,1018.67
2023-05-01T00:50:44.084Z,1018.67
2023-05-01T00:50:58.116Z,1018.67
2023-05-01T00:51:26.071Z,1018.67
2023-05-01T00:51:40.057Z,1018.67
2023-05-01T00:51:54.050Z,1018.67
2023-05-01T00:52:08.040Z,1018.67
2023-05-01T00:52:36.005Z,1018.66
2023-05-01T00:52:50.002Z,1018.66
2023-05-01T00:53:04.004Z,1018.66
2023-05-01T00:53:18.010Z,1018.65
2023-05-01T00:53:45.976Z,1018.65
2023-05-01T00:53:59.975Z,1018.65
2023-05-01T00:54:13.953Z,1018.65
2023-05-01T00:54:27.955Z,1018.65
2023-05-01T00:54:55.938Z,1018.65
2023-05-01T00:55:10.037Z,1018.64
2023-05-01T00:55:24.043Z,1018.65
2023-05-01T00:55:38.044Z,1018.65
2023-05-01T00:56:06.009Z,1018.65
2023-05-01T00:56:19.999Z,1018.65
2023-05-01T00:56:33.986Z,1018.65
2023-05-01T00:56:47.977Z,1018.65
2023-05-01T00:57:15.957Z,1018.65
2023-05-01T00:57:29.958Z,1018.64
2023-05-01T00:57:43.970Z,1018.64
2023-05-01T00:57:57.940Z,1018.64
2023-05-01T00:58:25.894Z,1018.63
2023-05-01T00:58:39.880Z,1018.63
2023-05-01T00:58:53.865Z,1018.63
2023-05-01T00:59:07.878Z,1018.62
2023-05-01T00:59:35.850Z,1018.61
2023-05-01T00:59:49.832Z,1018.61
2023-05-01T01:00:03.828Z,1018.61
2023-05-01T01:00:17.828Z,1018.61
2023-05-01T01:00:45.831Z,1018.60
2023-05-01T01:00:59.950Z,1018.60
2023-05-01T01:01:14.052Z,1018.59
2023-05-01T01:01:28.143Z,1018.59
2023-05-01T01:01:42.247Z,1018.59
2023-05-01T01:01:56.632Z,1018.58
2023-05-01T01:02:10.785Z,1018.58
2023-05-01T01:02:24.838Z,1018.58
2023-05-01T01:02:38.885Z,1018.57
2023-05-01T01:03:06.938Z,1018.56
2023-05-01T01:03:21.014Z,1018.56
2023-05-01T01:03:35.001Z,1018.56
2023-05-01T01:03:48.986Z,1018.55
2023-05-01T01:04:17.026Z,1018.55
2023-05-01T01:04:31.147Z,1018.54
2023-05-01T01:04:45.256Z,1018.54
2023-05-01T01:04:59.335Z,1018.53
2023-05-01T01:05:27.373Z,1018.52
2023-05-01T01:05:41.360Z,1018.51
2023-05-01T01:05:55.361Z,1018.51
2023-05-01T01:06:09.490Z,1018.50
2023-05-01T01:06:37.533Z,1018.49
2023-05-01T01:06:51.599Z,1018.49
2023-05-01T01:07:05.604Z,1018.48
2023-05-01T01:07:19.618Z,1018.47
2023-05-01T01:07:47.587Z,1018.46
2023-05-01T01:08:01.578Z,1018.46
2023-05-01T01:08:15.605Z,1018.45
2023-05-01T01:08:31.916Z,1018.45
2023-05-01T01:08:58.020Z,1018.44
2023-05-01T01:09:12.019Z,1018.44
2023-05-01T01:09:26.019Z,1018.43
2023-05-01T01:09:40.006Z,1018.42
2023-05-01T01:10:07.977Z,1018.41
2023-05-01T01:10:21.988Z,1018.41
2023-05-01T01:10:35.978Z,1018.41
2023-05-01T01:10:50.007Z,1018.40
2023-05-01T01:11:17.976Z,1018.40
2023-05-01T01:11:31.970Z,1018.40
2023-05-01T01:11:45.971Z,1018.40
2023-05-01T01:11:59.957Z,1018.40
2023-05-01T01:12:27.944Z,1018.39
2023-05-01T01:12:41.938Z,1018.39
2023-05-01T01:12:55.933Z,1018.38
2023-05-01T01:13:09.936Z,1018.38
2023-05-01T01:13:37.911Z,1018.38
2023-05-01T01:13:51.911Z,1018.37
2023-05-01T01:14:05.918Z,1018.37
2023-05-01T01:14:19.918Z,1018.37
2023-05-01T01:14:47.875Z,1018.36
2023-05-01T01:15:01.880Z,1018.36
2023-05-01T01:15:15.890Z,1018.35
2023-05-01T01:15:29.871Z,1018.35
2023-05-01T01:15:57.885Z,1018.35
2023-05-01T01:16:11.942Z,1018.34
2023-05-01T01:16:26.020Z,1018.34
2023-05-01T01:16:40.100Z,1018.34
2023-05-01T01:17:08.138Z,1018.34
2023-05-01T01:17:22.264Z,1018.33
2023-05-01T01:17:36.391Z,1018.33
2023-05-01T01:17:50.435Z,1018.33
2023-05-01T01:18:18.415Z,1018.33
2023-05-01T01:18:32.398Z,1018.33
2023-05-01T01:18:46.384Z,1018.33
2023-05-01T01:19:00.385Z,1018.32
2023-05-01T01:19:28.368Z,1018.33
2023-05-01T01:19:42.359Z,1018.33
2023-05-01T01:19:56.655Z,1018.33
2023-05-01T01:20:10.884Z,1018.33
2023-05-01T01:20:38.851Z,1018.33
2023-05-01T01:20:52.834Z,1018.32
2023-05-01T01:21:06.845Z,1018.33
2023-05-01T01:21:20.881Z,1018.33
2023-05-01T01:21:48.832Z,1018.33
2023-05-01T01:22:02.826Z,1018.33
2023-05-01T01:22:16.839Z,1018.33
2023-05-01T01:22:30.827Z,1018.33
2023-05-01T01:22:58.805Z,1018.32
2023-05-01T01:23:12.808Z,1018.32
2023-05-01T01:23:26.803Z,1018.32
2023-05-01T01:23:40.799Z,1018.31
2023-05-01T01:24:08.749Z,1018.31
2023-05-01T01:24:22.740Z,1018.31
2023-05-01T01:24:36.728Z,1018.31
2023-05-01T01:24:50.718Z,1018.31
2023-05-01T01:25:18.678Z,1018.31
2023-05-01T01:25:32.673Z,1018.30
2023-05-01T01:25:46.693Z,1018.30
2023-05-01T01:26:00.690Z,1018.30
2023-05-01T01:26:28.649Z,1018.29
2023-05-01T01:26:42.632Z,1018.29
2023-05-01T01:26:56.625Z,1018.28
2023-05-01T01:27:10.619Z,1018.28
2023-05-01T01:27:24.602Z,1018.28
2023-05-01T01:27:38.587Z,1018.28
2023-05-01T01:27:52.573Z,1018.28
2023-05-01T01:28:06.563Z,1018.27
2023-05-01T01:28:20.565Z,1018.27
2023-05-01T01:28:48.516Z,1018.27
2023-05-01T01:29:02.540Z,1018.27
2023-05-01T01:29:16.537Z,1018.26
2023-05-01T01:29:30.514Z,1018.27
2023-05-01T01:29:58.636Z,1018.27
2023-05-01T01:30:12.768Z,1018.27
2023-05-01T01:30:26.767Z,1018.27
2023-05-01T01:30:40.776Z,1018.27
2023-05-01T01:31:08.811Z,1018.27
2023-05-01T01:31:22.830Z,1018.27
2023-05-01T01:31:36.970Z,1018.27
2023-05-01T01:31:51.032Z,1018.27
2023-05-01T01:32:19.004Z,1018.27
2023-05-01T01:32:33.042Z,1018.27
2023-05-01T01:32:47.056Z,1018.27
2023-05-01T01:33:01.199Z,1018.27
2023-05-01T01:33:29.189Z,1018.27
2023-05-01T01:33:43.191Z,1018.26
2023-05-01T01:33:57.181Z,1018.26
2023-05-01T01:34:11.188Z,1018.26
2023-05-01T01:34:39.167Z,1018.26
2023-05-01T01:34:53.166Z,1018.26
2023-05-01T01:35:07.164Z,1018.26
2023-05-01T01:35:21.139Z,1018.26
2023-05-01T01:35:49.125Z,1018.26
2023-05-01T01:36:03.117Z,1018.26
2023-05-01T01:36:17.138Z,1018.25
2023-05-01T01:36:31.168Z,1018.25
2023-05-01T01:36:59.118Z,1018.25
2023-05-01T01:37:13.109Z,1018.25
2023-05-01T01:37:27.105Z,1018.24
2023-05-01T01:37:41.083Z,1018.24
2023-05-01T01:38:09.024Z,1018.24
2023-05-01T01:38:23.033Z,1018.24
2023-05-01T01:38:37.023Z,1018.24
2023-05-01T01:38:51.022Z,1018.23
2023-05-01T01:39:19.017Z,1018.24
2023-05-01T01:39:32.999Z,1018.23
2023-05-01T01:39:47.051Z,1018.23
2023-05-01T01:40:01.060Z,1018.23
2023-05-01T01:40:15.073Z,1018.23
2023-05-01T01:40:29.076Z,1018.23
2023-05-01T01:40:43.085Z,1018.23
2023-05-01T01:40:57.087Z,1018.23
2023-05-01T01:41:11.071Z,1018.23
2023-05-01T01:41:39.016Z,1018.22
2023-05-01T01:41:53.012Z,1018.22
2023-05-01T01:42:06.988Z,1018.22
2023-05-01T01:42:20.983Z,1018.22
2023-05-01T01:42:48.948Z,1018.21
2023-05-01T01:43:02.943Z,1018.21
2023-05-01T01:43:16.941Z,1018.21
2023-05-01T01:43:30.950Z,1018.21
2023-05-01T01:43:58.935Z,1018.21
2023-05-01T01:44:12.931Z,1018.20
2023-05-01T01:44:26.914Z,1018.20
2023-05-01T01:44:40.910Z,1018.20
2023-05-01T01:45:08.891Z,1018.20
2023-05-01T01:45:22.884Z,1018.21
2023-05-01T01:45:36.884Z,1018.21
2023-05-01T01:45:50.948Z,1018.21
2023-05-01T01:46:18.941Z,1018.21
2023-05-01T01:46:32.984Z,1018.21
2023-05-01T01:46:47.180Z,1018.21
2023-05-01T01:47:01.320Z,1018.21
2023-05-01T01:47:29.370Z,1018.21
2023-05-01T01:47:43.414Z,1018.22
2023-05-01T01:47:57.542Z,1018.22
2023-05-01T01:48:11.583Z,1018.22
2023-05-01T01:48:39.592Z,1018.22
2023-05-01T01:48:53.578Z,1018.22
2023-05-01T01:49:07.569Z,1018.23
2023-05-01T01:49:21.547Z,1018.23
2023-05-01T01:49:49.561Z,1018.22
2023-05-01T01:50:03.549Z,1018.22
2023-05-01T01:50:17.533Z,1018.22
2023-05-01T01:50:31.528Z,1018.22
2023-05-01T01:50:59.493Z,1018.22
2023-05-01T01:51:13.487Z,1018.21
2023-05-01T01:51:27.492Z,1018.21
2023-05-01T01:51:41.503Z,1018.21
2023-05-01T01:52:09.466Z,1018.20
2023-05-01T01:52:23.451Z,1018.19
2023-05-01T01:52:37.448Z,1018.20
2023-05-01T01:52:51.438Z,1018.20
2023-05-01T01:53:19.431Z,1018.19
2023-05-01T01:53:33.438Z,1018.19
2023-05-01T01:53:47.422Z,1018.19
2023-05-01T01:54:01.417Z,1018.18
2023-05-01T01:54:29.365Z,1018.18
2023-05-01T01:54:43.375Z,1018.17
2023-05-01T01:54:57.361Z,1018.17
2023-05-01T01:55:11.359Z,1018.17
2023-05-01T01:55:39.334Z,1018.16
2023-05-01T01:55:53.322Z,1018.16
2023-05-01T01:56:07.306Z,1018.16
2023-05-01T01:56:21.305Z,1018.16
2023-05-01T01:56:49.262Z,1018.15
2023-05-01T01:57:03.267Z,1018.15
2023-05-01T01:57:17.236Z,1018.15
2023-05-01T01:57:31.219Z,1018.16
2023-05-01T01:57:59.179Z,1018.15
2023-05-01T01:58:13.184Z,1018.15
2023-05-01T01:58:27.179Z,1018.15
2023-05-01T01:58:41.182Z,1018.15
2023-05-01T01:59:09.167Z,1018.15
2023-05-01T01:59:23.156Z,1018.14
2023-05-01T01:59:37.154Z,1018.14
2023-05-01T01:59:51.153Z,1018.14
2023-05-01T02:00:19.136Z,1018.14
2023-05-01T02:00:33.148Z,1018.14
2023-05-01T02:00:47.135Z,1018.13
2023-05-01T02:01:01.166Z,1018.13
2023-05-01T02:01:29.162Z,1018.12
2023-05-01T02:01:43.264Z,1018.11
2023-05-01T02:01:57.352Z,1018.11
2023-05-01T02:02:11.558Z,1018.11
2023-05-01T02:02:39.737Z,1018.10
2023-05-01T02:02:54.025Z,1018.10
2023-05-01T02:03:08.257Z,1018.09
2023-05-01T02:03:22.332Z,1018.09
2023-05-01T02:03:50.431Z,1018.08
2023-05-01T02:04:04.487Z,1018.08
2023-05-01T02:04:18.696Z,1018.07
2023-05-01T02:04:32.854Z,1018.07
2023-05-01T02:05:00.821Z,1018.07
2023-05-01T02:05:14.810Z,1018.06
2023-05-01T02:05:28.794Z,1018.05
2023-05-01T02:05:42.781Z,1018.05
2023-05-01T02:06:10.783Z,1018.04
2023-05-01T02:06:24.912Z,1018.04
2023-05-01T02:06:38.990Z,1018.04
2023-05-01T02:06:53.095Z,1018.03
2023-05-01T02:07:21.059Z,1018.02
2023-05-01T02:07:35.052Z,1018.02
2023-05-01T02:07:49.032Z,1018.02
2023-05-01T02:08:03.022Z,1018.02
2023-05-01T02:08:30.979Z,1018.01
2023-05-01T02:08:44.969Z,1018.00
2023-05-01T02:08:58.959Z,1018.00
2023-05-01T02:09:12.964Z,1017.99
2023-05-01T02:09:40.952Z,1017.99
2023-05-01T02:09:55.297Z,1017.99
2023-05-01T02:10:09.452Z,1017.99
2023-05-01T02:10:23.436Z,1017.98
2023-05-01T02:10:51.419Z,1017.98
2023-05-01T02:11:05.421Z,1017.98
2023-05-01T02:11:19.426Z,1017.97
2023-05-01T02:11:33.415Z,1017.97
2023-05-01T02:12:01.403Z,1017.96
2023-05-01T02:12:15.390Z,1017.96
2023-05-01T02:12:29.370Z,1017.97
2023-05-01T02:12:43.364Z,1017.96
2023-05-01T02:13:11.306Z,1017.95
2023-05-01T02:13:25.302Z,1017.95
2023-05-01T02:13:39.298Z,1017.95
2023-05-01T02:13:53.280Z,1017.94
2023-05-01T02:14:21.256Z,1017.94
2023-05-01T02:14:35.244Z,1017.93
2023-05-01T02:14:49.241Z,1017.93
2023-05-01T02:15:03.239Z,1017.93
2023-05-01T02:15:31.208Z,1017.92
2023-05-01T02:15:45.194Z,1017.93
2023-05-01T02:15:59.271Z,1017.93
2023-05-01T02:16:13.403Z,1017.93
2023-05-01T02:16:41.438Z,1017.93
2023-05-01T02:16:55.436Z,1017.93
2023-05-01T02:17:09.434Z,1017.92
2023-05-01T02:17:23.440Z,1017.92
2023-05-01T02:17:51.480Z,1017.92
2023-05-01T02:18:05.535Z,1017.92
2023-05-01T02:18:19.610Z,1017.92
2023-05-01T02:18:33.608Z,1017.92
2023-05-01T02:19:01.590Z,1017.91
2023-05-01T02:19:15.609Z,1017.92
2023-05-01T02:19:29.599Z,1017.92
2023-05-01T02:19:43.591Z,1017.92
2023-05-01T02:20:11.572Z,1017.93
2023-05-01T02:20:25.563Z,1017.93
2023-05-01T02:20:39.571Z,1017.93
2023-05-01T02:20:53.569Z,1017.93
2023-05-01T02:21:21.525Z,1017.93
2023-05-01T02:21:35.509Z,1017.93
2023-05-01T02:21:49.532Z,1017.93
2023-05-01T02:22:03.557Z,1017.93
2023-05-01T02:22:31.518Z,1017.93
2023-05-01T02:22:45.513Z,1017.93
2023-05-01T02:22:59.511Z,1017.93
2023-05-01T02:23:13.542Z,1017.93
2023-05-01T02:23:41.496Z,1017.92
2023-05-01T02:23:55.486Z,1017.92
2023-05-01T02:24:09.489Z,1017.92
2023-05-01T02:24:23.496Z,1017.92
2023-05-01T02:24:51.451Z,1017.91
2023-05-01T02:25:05.445Z,1017.90
2023-05-01T02:25:19.438Z,1017.90
2023-05-01T02:25:33.433Z,1017.90
2023-05-01T02:26:01.383Z,1017.90
2023-05-01T02:26:15.359Z,1017.89
2023-05-01T02:26:29.345Z,1017.89
2023-05-01T02:26:43.319Z,1017.88
2023-05-01T02:27:11.287Z,1017.88
2023-05-01T02:27:25.348Z,1017.88
2023-05-01T02:27:39.324Z,1017.88
2023-05-01T02:27:53.324Z,1017.89
2023-05-01T02:28:21.286Z,1017.89
2023-05-01T02:28:35.280Z,1017.88
2023-05-01T02:28:49.265Z,1017.88
2023-05-01T02:29:03.252Z,1017.87
2023-05-01T02:29:31.247Z,1017.88
2023-05-01T02:29:45.242Z,1017.87
2023-05-01T02:29:59.398Z,1017.88
2023-05-01T02:30:13.412Z,1017.88
2023-05-01T02:30:41.375Z,1017.88
2023-05-01T02:30:55.365Z,1017.88
2023-05-01T02:31:09.362Z,1017.88
2023-05-01T02:31:23.435Z,1017.87
2023-05-01T02:31:51.523Z,1017.88
2023-05-01T02:32:05.582Z,1017.87
2023-05-01T02:32:19.630Z,1017.87
2023-05-01T02:32:33.650Z,1017.86
2023-05-01T02:33:01.674Z,1017.86
2023-05-01T02:33:15.686Z,1017.86
2023-05-01T02:33:29.673Z,1017.86
2023-05-01T02:33:43.668Z,1017.86
2023-05-01T02:34:11.615Z,1017.86
2023-05-01T02:34:25.599Z,1017.85
2023-05-01T02:34:39.602Z,1017.85
2023-05-01T02:34:53.597Z,1017.85
2023-05-01T02:35:21.576Z,1017.85
2023-05-01T02:35:35.596Z,1017.86
2023-05-01T02:35:49.617Z,1017.85
2023-05-01T02:36:03.606Z,1017.85
2023-05-01T02:36:31.561Z,1017.85
2023-05-01T02:36:45.602Z,1017.84
2023-05-01T02:36:59.638Z,1017.85
2023-05-01T02:37:13.865Z,1017.85
2023-05-01T02:37:41.820Z,1017.84
2023-05-01T02:37:55.807Z,1017.84
2023-05-01T02:38:09.838Z,1017.84
2023-05-01T02:38:23.831Z,1017.83
2023-05-01T02:38:51.786Z,1017.83
2023-05-01T02:39:05.762Z,1017.83
2023-05-01T02:39:19.750Z,1017.83
2023-05-01T02:39:33.741Z,1017.83
2023-05-01T02:40:01.697Z,1017.82
2023-05-01T02:40:15.692Z,1017.81
2023-05-01T02:40:29.704Z,1017.80
2023-05-01T02:40:43.689Z,1017.80
2023-05-01T02:41:11.665Z,1017.79
2023-05-01T02:41:25.652Z,1017.79
2023-05-01T02:41:39.637Z,1017.79
2023-05-01T02:41:53.615Z,1017.78
2023-05-01T02:42:21.589Z,1017.78
2023-05-01T02:42:35.619Z,1017.77
2023-05-01T02:42:49.602Z,1017.77
2023-05-01T02:43:03.596Z,1017.77
2023-05-01T02:43:31.565Z,1017.77
2023-05-01T02:43:45.538Z,1017.77
2023-05-01T02:43:59.519Z,1017.77
2023-05-01T02:44:13.500Z,1017.77
2023-05-01T02:44:41.458Z,1017.77
2023-05-01T02:44:55.445Z,1017.77
2023-05-01T02:45:09.445Z,1017.77
2023-05-01T02:45:23.473Z,1017.76
2023-05-01T02:45:51.449Z,1017.76
2023-05-01T02:46:05.611Z,1017.76
2023-05-01T02:46:19.831Z,1017.76
2023-05-01T02:46:33.970Z,1017.76
2023-05-01T02:47:02.069Z,1017.76
2023-05-01T02:47:16.143Z,1017.77
2023-05-01T02:47:30.212Z,1017.77
2023-05-01T02:47:44.294Z,1017.77
2023-05-01T02:48:12.368Z,1017.77
2023-05-01T02:48:26.401Z,1017.76
2023-05-01T02:48:40.381Z,1017.76
2023-05-01T02:48:54.379Z,1017.76
2023-05-01T02:49:22.345Z,1017.76
2023-05-01T02:49:36.337Z,1017.77
2023-05-01T02:49:50.330Z,1017.77
2023-05-01T02:50:04.313Z,1017.77
2023-05-01T02:50:32.253Z,1017.76
2023-05-01T02:50:46.243Z,1017.77
2023-05-01T02:51:00.229Z,1017.76
2023-05-01T02:51:14.238Z,1017.77
2023-05-01T02:51:42.190Z,1017.77
2023-05-01T02:51:56.176Z,1017.77
2023-05-01T02:52:10.168Z,1017.76
2023-05-01T02:52:24.189Z,1017.76
2023-05-01T02:52:52.177Z,1017.76
2023-05-01T02:53:06.154Z,1017.75
2023-05-01T02:53:20.142Z,1017.75
2023-05-01T02:53:34.172Z,1017.75
2023-05-01T02:54:02.143Z,1017.75
2023-05-01T02:54:16.134Z,1017.76
2023-05-01T02:54:30.148Z,1017.76
2023-05-01T02:54:44.171Z,1017.76
2023-05-01T02:55:12.134Z,1017.76
2023-05-01T02:55:26.118Z,1017.76
2023-05-01T02:55:40.108Z,1017.76
2023-05-01T02:55:54.096Z,1017.76
2023-05-01T02:56:22.057Z,1017.75
2023-05-01T02:56:36.047Z,1017.75
2023-05-01T02:56:50.036Z,1017.75
2023-05-01T02:57:04.023Z,1017.75
2023-05-01T02:57:31.989Z,1017.74
2023-05-01T02:57:45.991Z,1017.74
2023-05-01T02:57:59.983Z,1017.74
2023-05-01T02:58:13.959Z,1017.74
2023-05-01T02:58:41.923Z,1017.73
2023-05-01T02:58:55.924Z,1017.73
2023-05-01T02:59:09.916Z,1017.73
2023-05-01T02:59:23.922Z,1017.72
2023-05-01T02:59:51.899Z,1017.72
2023-05-01T03:00:05.889Z,1017.71
2023-05-01T03:00:19.882Z,1017.71
2023-05-01T03:00:33.866Z,1017.70
2023-05-01T03:01:01.871Z,1017.69
2023-05-01T03:01:15.987Z,1017.69
2023-05-01T03:01:30.095Z,1017.68
2023-05-01T03:01:44.266Z,1017.68
2023-05-01T03:01:58.311Z,1017.67
2023-05-01T03:02:12.308Z,1017.66
2023-05-01T03:02:26.299Z,1017.66
2023-05-01T03:02:40.342Z,1017.65
2023-05-01T03:02:54.393Z,1017.64
2023-05-01T03:03:22.464Z,1017.63
2023-05-01T03:03:36.543Z,1017.63
2023-05-01T03:03:50.590Z,1017.62
2023-05-01T03:04:04.664Z,1017.62
2023-05-01T03:04:32.675Z,1017.61
2023-05-01T03:04:46.786Z,1017.60
2023-05-01T03:05:00.997Z,1017.60
2023-05-01T03:05:14.996Z,1017.59
2023-05-01T03:05:42.961Z,1017.58
2023-05-01T03:05:56.966Z,1017.57
2023-05-01T03:06:10.998Z,1017.57
2023-05-01T03:06:25.053Z,1017.56
2023-05-01T03:06:53.088Z,1017.55
2023-05-01T03:07:07.149Z,1017.55
2023-05-01T03:07:21.150Z,1017.54
2023-05-01T03:07:35.291Z,1017.54
2023-05-01T03:08:03.366Z,1017.53
2023-05-01T03:08:17.357Z,1017.54
2023-05-01T03:08:31.337Z,1017.53
2023-05-01T03:08:45.364Z,1017.53
2023-05-01T03:09:13.329Z,1017.52
2023-05-01T03:09:27.322Z,1017.52
2023-05-01T03:09:41.334Z,1017.52
2023-05-01T03:09:55.710Z,1017.51
2023-05-01T03:10:09.903Z,1017.51
2023-05-01T03:10:23.904Z,1017.52
2023-05-01T03:10:37.924Z,1017.52
2023-05-01T03:10:51.894Z,1017.51
2023-05-01T03:11:05.886Z,1017.51
2023-05-01T03:11:33.859Z,1017.52
2023-05-01T03:11:47.837Z,1017.52
2023-05-01T03:12:01.840Z,1017.52
2023-05-01T03:12:15.817Z,1017.53
2023-05-01T03:12:43.801Z,1017.53
2023-05-01T03:12:57.781Z,1017.54
2023-05-01T03:13:11.823Z,1017.54
2023-05-01T03:13:25.850Z,1017.54
2023-05-01T03:13:53.830Z,1017.55
2023-05-01T03:14:07.829Z,1017.55
2023-05-01T03:14:21.836Z,1017.55
2023-05-01T03:14:35.817Z,1017.56
2023-05-01T03:15:03.765Z,1017.57
2023-05-01T03:15:17.746Z,1017.57
2023-05-01T03:15:31.722Z,1017.57
2023-05-01T03:15:45.720Z,1017.57
2023-05-01T03:16:13.710Z,1017.57
2023-05-01T03:16:27.818Z,1017.57
2023-05-01T03:16:41.894Z,1017.57
2023-05-01T03:16:56.013Z,1017.57
2023-05-01T03:17:24.134Z,1017.57
2023-05-01T03:17:38.186Z,1017.57
2023-05-01T03:17:52.266Z,1017.57
2023-05-01T03:18:06.328Z,1017.57
2023-05-01T03:18:34.350Z,1017.57
2023-05-01T03:18:48.347Z,1017.57
2023-05-01T03:19:02.333Z,1017.57
2023-05-01T03:19:16.342Z,1017.57
2023-05-01T03:19:44.305Z,1017.57
2023-05-01T03:19:58.441Z,1017.57
2023-05-01T03:20:12.546Z,1017.57
2023-05-01T03:20:27.616Z,1017.57
2023-05-01T03:20:53.064Z,1017.57
2023-05-01T03:21:07.078Z,1017.58
2023-05-01T03:21:21.090Z,1017.58
2023-05-01T03:21:35.094Z,1017.58
2023-05-01T03:22:03.045Z,1017.59
2023-05-01T03:22:17.031Z,1017.59
2023-05-01T03:22:31.009Z,1017.59
2023-05-01T03:22:45.090Z,1017.58
2023-05-01T03:23:13.062Z,1017.58
2023-05-01T03:23:27.046Z,1017.58
2023-05-01T03:23:41.035Z,1017.58
2023-05-01T03:23:55.018Z,1017.57
2023-05-01T03:24:22.988Z,1017.57
2023-05-01T03:24:36.979Z,1017.57
2023-05-01T03:24:50.977Z,1017.56
2023-05-01T03:25:05.033Z,1017.56
2023-05-01T03:25:33.105Z,1017.56
2023-05-01T03:25:47.096Z,1017.55
2023-05-01T03:26:01.112Z,1017.55
2023-05-01T03:26:15.121Z,1017.54
2023-05-01T03:26:43.123Z,1017.54
2023-05-01T03:26:57.110Z,1017.53
2023-05-01T03:27:11.098Z,1017.53
2023-05-01T03:27:25.085Z,1017.53
2023-05-01T03:27:53.089Z,1017.52
2023-05-01T03:28:05.737Z,1017.52
2023-05-01T03:28:19.754Z,1017.51
2023-05-01T03:28:33.746Z,1017.51
2023-05-01T03:29:01.725Z,1017.51
2023-05-01T03:29:15.736Z,1017.50
2023-05-01T03:29:29.733Z,1017.50
2023-05-01T03:29:43.714Z,1017.50